createdAt,value
2022-12-18T00:01:38.997Z,-5.00
2022-12-18T00:04:24.081Z,-5.00
2022-12-18T00:06:56.938Z,-4.90
2022-12-18T00:09:31.095Z,-5.40
2022-12-18T00:14:47.646Z,-5.40
2022-12-18T00:17:22.443Z,-5.40
2022-12-18T00:19:54.760Z,-5.60
2022-12-18T00:22:26.793Z,-5.60
2022-12-18T00:24:59.365Z,-5.70
2022-12-18T00:27:31.728Z,-5.70
2022-12-18T00:30:04.933Z,-5.70
2022-12-18T00:32:36.884Z,-5.70
2022-12-18T00:35:10.004Z,-5.80
2022-12-18T00:37:42.382Z,-5.70
2022-12-18T00:40:14.721Z,-5.80
2022-12-18T00:42:59.377Z,-5.60
2022-12-18T00:45:32.770Z,-5.70
2022-12-18T00:48:05.515Z,-5.80
2022-12-18T00:50:38.376Z,-5.60
2022-12-18T00:53:10.520Z,-5.60
2022-12-18T00:55:44.146Z,-5.60
2022-12-18T00:58:18.132Z,-5.60
2022-12-18T01:00:50.093Z,-5.60
2022-12-18T01:03:22.919Z,-5.60
2022-12-18T01:05:54.789Z,-5.70
2022-12-18T01:08:28.992Z,-5.80
2022-12-18T01:13:35.086Z,-6.00
2022-12-18T01:16:07.475Z,-5.90
2022-12-18T01:18:41.367Z,-5.90
2022-12-18T01:21:18.246Z,-6.00
2022-12-18T01:23:56.784Z,-6.10
2022-12-18T01:26:30.579Z,-6.10
2022-12-18T01:29:03.468Z,-6.00
2022-12-18T01:31:35.901Z,-6.10
2022-12-18T01:34:08.471Z,-6.20
2022-12-18T01:36:41.301Z,-6.10
2022-12-18T01:39:16.396Z,-6.20
2022-12-18T01:42:04.430Z,-6.30
2022-12-18T01:45:10.724Z,-6.10
2022-12-18T01:47:47.894Z,-6.20
2022-12-18T01:50:42.121Z,-6.10
2022-12-18T01:53:20.240Z,-6.10
2022-12-18T01:55:58.555Z,-6.20
2022-12-18T01:58:57.838Z,-6.00
2022-12-18T02:01:33.002Z,-6.00
2022-12-18T02:04:26.718Z,-6.10
2022-12-18T02:07:32.799Z,-4.00
2022-12-18T02:10:42.653Z,-6.00
2022-12-18T02:13:43.902Z,-6.10
2022-12-18T02:16:46.137Z,-6.00
2022-12-18T02:19:58.295Z,-6.10
2022-12-18T02:23:15.838Z,-6.00
2022-12-18T02:26:27.882Z,-6.10
2022-12-18T02:29:09.811Z,-6.00
2022-12-18T02:31:53.395Z,-5.90
2022-12-18T02:34:31.469Z,-5.90
2022-12-18T02:37:10.425Z,-5.90
2022-12-18T02:39:46.461Z,-6.00
2022-12-18T02:42:20.782Z,-5.80
2022-12-18T02:44:57.147Z,-5.80
2022-12-18T02:47:34.495Z,-5.80
2022-12-18T02:50:20.120Z,-5.80
2022-12-18T02:53:29.721Z,-5.80
2022-12-18T02:56:20.939Z,-5.90
2022-12-18T02:59:08.796Z,-5.90
2022-12-18T03:02:18.276Z,-5.60
2022-12-18T03:05:19.815Z,-5.60
2022-12-18T03:08:11.595Z,-5.50
2022-12-18T03:11:15.555Z,-5.70
2022-12-18T03:13:57.531Z,-5.70
2022-12-18T03:16:32.271Z,-6.00
2022-12-18T03:19:13.391Z,-6.20
2022-12-18T03:21:54.992Z,-6.40
2022-12-18T03:24:32.920Z,-6.50
2022-12-18T03:27:13.550Z,-6.50
2022-12-18T03:29:58.111Z,-6.50
2022-12-18T03:32:47.768Z,-6.50
2022-12-18T03:35:28.169Z,-6.60
2022-12-18T03:38:00.337Z,-6.60
2022-12-18T03:40:55.253Z,-6.70
2022-12-18T03:43:54.928Z,-6.70
2022-12-18T03:46:44.636Z,-6.60
2022-12-18T03:49:36.755Z,-6.60
2022-12-18T03:52:20.916Z,-6.40
2022-12-18T03:54:55.023Z,-6.50
2022-12-18T03:57:31.778Z,-6.60
2022-12-18T04:00:15.005Z,-6.60
2022-12-18T04:03:02.594Z,-6.60
2022-12-18T04:05:43.216Z,-6.60
2022-12-18T04:08:16.506Z,-6.90
2022-12-18T04:10:55.555Z,-6.90
2022-12-18T04:13:37.449Z,-6.90
2022-12-18T04:16:13.840Z,-6.90
2022-12-18T04:18:48.203Z,-6.90
2022-12-18T04:21:21.880Z,-7.10
2022-12-18T04:23:54.694Z,-6.90
2022-12-18T04:26:28.980Z,-7.00
2022-12-18T04:29:21.153Z,-7.10
2022-12-18T04:31:53.868Z,-7.30
2022-12-18T04:34:26.740Z,-7.20
2022-12-18T04:37:00.587Z,-7.00
2022-12-18T04:39:33.021Z,-7.20
2022-12-18T04:42:10.827Z,-7.10
2022-12-18T04:44:43.502Z,-7.10
2022-12-18T04:47:15.384Z,-7.40
2022-12-18T04:49:48.121Z,-7.60
2022-12-18T04:52:20.132Z,-7.50
2022-12-18T04:54:52.980Z,-7.60
2022-12-18T04:57:24.860Z,-7.50
2022-12-18T04:59:57.506Z,-7.50
2022-12-18T05:02:29.463Z,-7.70
2022-12-18T05:05:02.273Z,-7.70
2022-12-18T05:07:34.758Z,-7.70
2022-12-18T05:10:08.731Z,-7.70
2022-12-18T05:12:59.978Z,-7.70
2022-12-18T05:15:37.506Z,-7.70
2022-12-18T05:18:10.166Z,-7.70
2022-12-18T05:20:42.844Z,-7.80
2022-12-18T05:23:14.699Z,-7.60
2022-12-18T05:25:53.905Z,-7.60
2022-12-18T05:28:27.845Z,-7.60
2022-12-18T05:31:05.177Z,-7.60
2022-12-18T05:33:37.661Z,-7.70
2022-12-18T05:36:11.499Z,-7.60
2022-12-18T05:38:43.458Z,-7.60
2022-12-18T05:41:16.158Z,-7.60
2022-12-18T05:43:48.770Z,-7.50
2022-12-18T05:46:20.662Z,-7.50
2022-12-18T05:48:53.424Z,-6.70
2022-12-18T05:51:25.291Z,-7.10
2022-12-18T05:53:57.990Z,-7.40
2022-12-18T05:56:29.821Z,-7.70
2022-12-18T05:59:02.516Z,-7.80
2022-12-18T06:01:35.022Z,-7.90
2022-12-18T06:04:07.849Z,-8.00
2022-12-18T06:06:39.749Z,-8.10
2022-12-18T06:09:13.216Z,-8.00
2022-12-18T06:11:45.508Z,-8.00
2022-12-18T06:14:18.218Z,-8.00
2022-12-18T06:16:53.641Z,-7.90
2022-12-18T06:19:25.487Z,-7.90
2022-12-18T06:22:00.238Z,-7.70
2022-12-18T06:24:32.083Z,-7.70
2022-12-18T06:27:05.078Z,-7.70
2022-12-18T06:29:37.103Z,-7.50
2022-12-18T06:32:10.326Z,-7.40
2022-12-18T06:34:42.628Z,-7.40
2022-12-18T06:37:14.498Z,-7.30
2022-12-18T06:39:47.217Z,-7.20
2022-12-18T06:42:19.848Z,-7.20
2022-12-18T06:44:51.784Z,-7.10
2022-12-18T06:47:27.713Z,-7.20
2022-12-18T06:49:59.546Z,-7.50
2022-12-18T06:55:26.622Z,-7.60
2022-12-18T06:57:59.288Z,-7.50
2022-12-18T07:00:31.584Z,-7.50
2022-12-18T07:03:04.840Z,-7.60
2022-12-18T07:05:41.809Z,-7.50
2022-12-18T07:08:14.480Z,-7.50
2022-12-18T07:10:48.938Z,-7.40
2022-12-18T07:13:23.927Z,-7.40
2022-12-18T07:15:55.820Z,-7.40
2022-12-18T07:18:28.723Z,-7.50
2022-12-18T07:21:06.355Z,-7.50
2022-12-18T07:23:39.296Z,-7.50
2022-12-18T07:26:14.226Z,-7.50
2022-12-18T07:28:46.233Z,-7.40
2022-12-18T07:31:22.342Z,-7.20
2022-12-18T07:33:55.123Z,-7.30
2022-12-18T07:36:27.828Z,-7.40
2022-12-18T07:39:00.389Z,-7.40
2022-12-18T07:41:32.285Z,-7.40
2022-12-18T07:44:14.306Z,-7.40
2022-12-18T07:46:46.126Z,-7.40
2022-12-18T07:49:18.796Z,-7.40
2022-12-18T07:51:50.656Z,-7.40
2022-12-18T07:54:24.548Z,-7.40
2022-12-18T07:56:56.872Z,-7.30
2022-12-18T07:59:29.132Z,-7.20
2022-12-18T08:04:34.318Z,-7.20
2022-12-18T08:07:06.318Z,-7.20
2022-12-18T08:12:12.062Z,-7.20
2022-12-18T08:14:44.194Z,-7.10
2022-12-18T08:17:16.898Z,-6.90
2022-12-18T08:19:49.611Z,-6.90
2022-12-18T08:22:24.701Z,-7.00
2022-12-18T08:24:56.607Z,-6.90
2022-12-18T08:27:30.172Z,-6.80
2022-12-18T08:30:03.053Z,-6.90
2022-12-18T08:32:35.849Z,-7.10
2022-12-18T08:35:09.815Z,-7.10
2022-12-18T08:40:16.448Z,-6.80
2022-12-18T08:43:06.735Z,-6.70
2022-12-18T08:45:39.479Z,-6.50
2022-12-18T08:48:11.540Z,-6.30
2022-12-18T08:50:59.811Z,-6.20
2022-12-18T08:53:35.592Z,-6.20
2022-12-18T08:56:09.294Z,-6.10
2022-12-18T08:58:42.384Z,-6.00
2022-12-18T09:01:15.664Z,-5.80
2022-12-18T09:03:49.026Z,-5.60
2022-12-18T09:06:23.777Z,-5.40
2022-12-18T09:08:55.661Z,-4.30
2022-12-18T09:11:30.278Z,-4.30
2022-12-18T09:14:03.070Z,1.40
2022-12-18T09:16:35.952Z,-2.20
2022-12-18T09:19:08.778Z,-2.60
2022-12-18T09:21:47.534Z,-2.20
2022-12-18T09:24:20.907Z,-2.10
2022-12-18T09:26:57.881Z,-1.40
2022-12-18T09:29:30.857Z,-1.50
2022-12-18T09:32:02.770Z,-1.40
2022-12-18T09:34:36.094Z,-1.50
2022-12-18T09:37:08.431Z,-0.70
2022-12-18T09:39:40.754Z,-1.30
2022-12-18T09:42:24.084Z,-1.40
2022-12-18T09:44:57.197Z,-1.40
2022-12-18T09:47:38.114Z,-1.20
2022-12-18T09:50:40.649Z,-1.30
2022-12-18T09:53:20.904Z,-1.40
2022-12-18T09:55:55.873Z,-1.50
2022-12-18T09:58:48.086Z,-1.60
2022-12-18T10:01:24.316Z,-1.50
2022-12-18T10:03:57.414Z,-1.50
2022-12-18T10:06:55.334Z,-1.50
2022-12-18T10:09:48.624Z,-1.60
2022-12-18T10:12:51.439Z,-1.60
2022-12-18T10:15:51.438Z,-1.50
2022-12-18T10:18:54.770Z,-1.20
2022-12-18T10:21:59.042Z,-1.10
2022-12-18T10:24:48.637Z,-0.20
2022-12-18T10:27:26.952Z,-0.30
2022-12-18T10:29:59.959Z,-0.40
2022-12-18T10:32:32.491Z,-0.80
2022-12-18T10:35:05.180Z,-1.00
2022-12-18T10:38:23.892Z,-1.20
2022-12-18T10:41:12.823Z,-0.70
2022-12-18T10:43:45.141Z,-0.10
2022-12-18T10:46:21.121Z,0.10
2022-12-18T10:48:59.272Z,0.40
2022-12-18T10:51:37.643Z,0.30
2022-12-18T10:54:19.893Z,0.40
2022-12-18T10:56:51.848Z,0.60
2022-12-18T10:59:24.562Z,0.50
2022-12-18T11:01:59.039Z,0.70
2022-12-18T11:04:33.612Z,1.10
2022-12-18T11:07:09.219Z,0.70
2022-12-18T11:09:41.492Z,0.10
2022-12-18T11:12:23.918Z,0.20
2022-12-18T11:14:57.458Z,-0.10
2022-12-18T11:17:36.284Z,-0.10
2022-12-18T11:20:33.169Z,0.10
2022-12-18T11:23:14.995Z,0.10
2022-12-18T11:25:57.525Z,0.10
2022-12-18T11:28:48.151Z,0.10
2022-12-18T11:31:28.503Z,-0.20
2022-12-18T11:34:28.551Z,0.00
2022-12-18T11:37:04.501Z,-0.10
2022-12-18T11:39:55.845Z,0.10
2022-12-18T11:42:53.206Z,0.40
2022-12-18T11:45:34.744Z,0.30
2022-12-18T11:48:21.145Z,0.50
2022-12-18T11:50:57.128Z,0.60
2022-12-18T11:53:31.307Z,0.60
2022-12-18T11:56:53.063Z,0.10
2022-12-18T11:59:52.275Z,-0.20
2022-12-18T12:02:50.376Z,-0.40
2022-12-18T12:05:43.448Z,-0.30
2022-12-18T12:09:05.985Z,-0.60
2022-12-18T12:16:12.484Z,-0.40
2022-12-18T12:19:47.762Z,-0.40
2022-12-18T12:23:13.706Z,-0.60
2022-12-18T12:26:21.898Z,-0.50
2022-12-18T12:29:30.769Z,0.10
2022-12-18T12:32:20.499Z,0.00
2022-12-18T12:35:09.910Z,-0.20
2022-12-18T12:38:34.381Z,-0.40
2022-12-18T12:41:30.920Z,-0.40
2022-12-18T12:44:10.513Z,-0.40
2022-12-18T12:46:44.827Z,-0.40
2022-12-18T12:49:22.552Z,-0.30
2022-12-18T12:52:09.331Z,-0.30
2022-12-18T12:54:43.490Z,-0.30
2022-12-18T12:58:08.203Z,-0.30
2022-12-18T13:01:06.099Z,-0.40
2022-12-18T13:04:23.623Z,-0.40
2022-12-18T13:07:13.413Z,-0.40
2022-12-18T13:10:19.128Z,-0.20
2022-12-18T13:13:01.931Z,-0.30
2022-12-18T13:15:49.883Z,-0.30
2022-12-18T13:18:24.327Z,-0.40
2022-12-18T13:21:03.036Z,-0.40
2022-12-18T13:23:37.845Z,-0.30
2022-12-18T13:29:05.161Z,-0.40
2022-12-18T13:31:41.160Z,-0.40
2022-12-18T13:34:27.524Z,-0.40
2022-12-18T13:37:43.063Z,-0.40
2022-12-18T13:40:56.575Z,-0.40
2022-12-18T13:43:48.099Z,-0.30
2022-12-18T13:46:24.500Z,-0.30
2022-12-18T13:49:14.744Z,-0.40
2022-12-18T13:51:54.714Z,-0.50
2022-12-18T13:54:36.596Z,-0.50
2022-12-18T13:57:29.616Z,-0.50
2022-12-18T14:00:25.748Z,-0.50
2022-12-18T14:03:00.026Z,-0.60
2022-12-18T14:05:38.692Z,-0.70
2022-12-18T14:08:16.940Z,-0.60
2022-12-18T14:10:52.914Z,-0.60
2022-12-18T14:13:38.628Z,-0.60
2022-12-18T14:16:16.908Z,-0.60
2022-12-18T14:19:05.192Z,-0.60
2022-12-18T14:21:52.126Z,-0.60
2022-12-18T14:24:24.922Z,-0.80
2022-12-18T14:27:22.502Z,-0.80
2022-12-18T14:29:55.980Z,-0.80
2022-12-18T14:32:27.891Z,-0.80
2022-12-18T14:35:14.863Z,-0.70
2022-12-18T14:40:46.497Z,-0.80
2022-12-18T14:43:19.344Z,-0.90
2022-12-18T14:45:52.855Z,-0.90
2022-12-18T14:48:44.014Z,-1.10
2022-12-18T14:51:22.418Z,-0.80
2022-12-18T14:54:04.545Z,-0.80
2022-12-18T14:56:43.507Z,-0.80
2022-12-18T14:59:26.209Z,-0.70
2022-12-18T15:02:28.316Z,-0.80
2022-12-18T15:05:04.408Z,-0.80
2022-12-18T15:07:47.968Z,-0.90
2022-12-18T15:10:28.014Z,-1.10
2022-12-18T15:13:01.379Z,-1.10
2022-12-18T15:15:37.378Z,-1.00
2022-12-18T15:18:11.841Z,-0.90
2022-12-18T15:20:50.803Z,-0.90
2022-12-18T15:23:27.458Z,-0.90
2022-12-18T15:26:02.363Z,-0.90
2022-12-18T15:28:39.081Z,-0.80
2022-12-18T15:31:13.494Z,-0.90
2022-12-18T15:33:53.327Z,-1.00
2022-12-18T15:39:05.044Z,-1.10
2022-12-18T15:41:39.237Z,-1.20
2022-12-18T15:44:24.957Z,-1.20
2022-12-18T15:46:58.326Z,-1.30
2022-12-18T15:49:30.339Z,-1.30
2022-12-18T15:52:04.783Z,-1.30
2022-12-18T15:54:54.985Z,-1.30
2022-12-18T15:57:27.874Z,-1.20
2022-12-18T15:59:59.810Z,-1.30
2022-12-18T16:02:32.723Z,-1.30
2022-12-18T16:05:13.253Z,-1.30
2022-12-18T16:07:46.983Z,-1.40
2022-12-18T16:10:19.306Z,-1.20
2022-12-18T16:12:52.053Z,-1.10
2022-12-18T16:15:25.203Z,-1.20
2022-12-18T16:17:57.963Z,-1.10
2022-12-18T16:20:30.281Z,-1.00
2022-12-18T16:23:02.659Z,-0.90
2022-12-18T16:25:34.791Z,-0.90
2022-12-18T16:28:07.532Z,-0.90
2022-12-18T16:30:40.005Z,-0.80
2022-12-18T16:33:13.007Z,-0.60
2022-12-18T16:35:56.371Z,-0.90
2022-12-18T16:38:29.091Z,-0.80
2022-12-18T16:41:23.783Z,-0.80
2022-12-18T16:43:56.505Z,-0.60
2022-12-18T16:46:28.521Z,-0.70
2022-12-18T16:49:01.884Z,-0.70
2022-12-18T16:51:36.415Z,-0.70
2022-12-18T16:54:11.662Z,-0.80
2022-12-18T16:56:49.795Z,-0.80
2022-12-18T16:59:23.133Z,-0.80
2022-12-18T17:01:57.256Z,-0.80
2022-12-18T17:04:30.656Z,-0.80
2022-12-18T17:07:04.537Z,-0.60
2022-12-18T17:09:37.443Z,-0.70
2022-12-18T17:12:10.415Z,-0.70
2022-12-18T17:14:42.312Z,-0.60
2022-12-18T17:17:23.573Z,-0.70
2022-12-18T17:19:56.821Z,-0.70
2022-12-18T17:22:29.171Z,-0.60
2022-12-18T17:25:01.462Z,-0.60
2022-12-18T17:27:33.606Z,-0.60
2022-12-18T17:30:07.396Z,-0.60
2022-12-18T17:32:39.672Z,-0.80
2022-12-18T17:35:11.529Z,-0.80
2022-12-18T17:37:44.248Z,-0.60
2022-12-18T17:40:16.257Z,-0.60
2022-12-18T17:45:21.247Z,-0.50
2022-12-18T17:47:59.613Z,-0.90
2022-12-18T17:50:36.746Z,-0.90
2022-12-18T17:53:08.709Z,-0.80
2022-12-18T17:55:41.022Z,-0.90
2022-12-18T17:58:12.889Z,-0.90
2022-12-18T18:00:45.630Z,-0.90
2022-12-18T18:03:18.151Z,-0.80
2022-12-18T18:05:59.080Z,-0.80
2022-12-18T18:08:32.398Z,-0.80
2022-12-18T18:11:47.915Z,-0.80
2022-12-18T18:14:21.434Z,-0.70
2022-12-18T18:16:54.179Z,-0.70
2022-12-18T18:19:28.228Z,-0.70
2022-12-18T18:22:01.381Z,-0.70
2022-12-18T18:24:35.114Z,-0.70
2022-12-18T18:27:07.070Z,-0.70
2022-12-18T18:29:40.531Z,-0.70
2022-12-18T18:32:12.917Z,-0.70
2022-12-18T18:34:45.437Z,-0.60
2022-12-18T18:37:17.878Z,-0.60
2022-12-18T18:39:49.730Z,-0.70
2022-12-18T18:42:22.455Z,-0.80
2022-12-18T18:44:54.748Z,-0.80
2022-12-18T18:47:30.622Z,-0.80
2022-12-18T18:50:03.399Z,-0.80
2022-12-18T18:52:35.287Z,-0.70
2022-12-18T18:55:25.265Z,-0.60
2022-12-18T18:57:57.763Z,-0.60
2022-12-18T19:00:31.264Z,-0.60
2022-12-18T19:03:03.649Z,-0.70
2022-12-18T19:05:37.457Z,-0.70
2022-12-18T19:08:10.454Z,-0.80
2022-12-18T19:10:43.157Z,-0.40
2022-12-18T19:13:27.339Z,-0.60
2022-12-18T19:16:10.068Z,-0.60
2022-12-18T19:18:45.632Z,-0.70
2022-12-18T19:21:18.186Z,-0.60
2022-12-18T19:23:51.744Z,-0.50
2022-12-18T19:29:07.898Z,-0.40
2022-12-18T19:31:40.245Z,-0.40
2022-12-18T19:34:12.308Z,-0.40
2022-12-18T19:36:45.229Z,-0.40
2022-12-18T19:39:19.698Z,-0.40
2022-12-18T19:44:26.756Z,-0.30
2022-12-18T19:47:00.106Z,-0.30
2022-12-18T19:49:32.629Z,-0.40
2022-12-18T19:52:05.605Z,-0.30
2022-12-18T19:54:38.136Z,-0.30
2022-12-18T19:57:11.985Z,-0.30
2022-12-18T19:59:43.872Z,-0.30
2022-12-18T20:04:51.380Z,-0.10
2022-12-18T20:07:24.113Z,-0.10
2022-12-18T20:10:02.554Z,-0.10
2022-12-18T20:12:41.115Z,-0.30
2022-12-18T20:15:14.127Z,-0.20
2022-12-18T20:17:46.451Z,-0.30
2022-12-18T20:22:52.251Z,-0.30
2022-12-18T20:25:24.138Z,-0.20
2022-12-18T20:27:56.854Z,-0.20
2022-12-18T20:30:30.129Z,-0.40
2022-12-18T20:33:02.064Z,-0.30
2022-12-18T20:35:34.882Z,-0.40
2022-12-18T20:38:08.680Z,-0.30
2022-12-18T20:40:42.590Z,-0.30
2022-12-18T20:43:17.316Z,-0.30
2022-12-18T20:45:49.605Z,-0.20
2022-12-18T20:48:26.601Z,-0.20
2022-12-18T20:51:05.812Z,-0.10
2022-12-18T20:53:40.220Z,-0.20
2022-12-18T20:56:21.137Z,-0.10
2022-12-18T20:58:58.015Z,-0.10
2022-12-18T21:01:31.379Z,-0.10
2022-12-18T21:04:04.308Z,0.00
2022-12-18T21:06:36.872Z,-0.10
2022-12-18T21:09:09.586Z,-0.20
2022-12-18T21:12:00.581Z,-0.20
2022-12-18T21:14:32.499Z,-0.10
2022-12-18T21:17:04.658Z,0.00
2022-12-18T21:19:37.068Z,0.00
2022-12-18T21:22:10.888Z,0.00
2022-12-18T21:24:43.033Z,0.10
2022-12-18T21:27:16.320Z,0.00
2022-12-18T21:32:24.777Z,0.00
2022-12-18T21:35:01.291Z,-0.10
2022-12-18T21:37:34.361Z,0.00
2022-12-18T21:40:07.954Z,0.00
2022-12-18T21:42:58.463Z,0.10
2022-12-18T21:45:30.784Z,0.10
2022-12-18T21:48:02.804Z,0.10
2022-12-18T21:50:34.663Z,0.10
2022-12-18T21:53:07.358Z,0.10
2022-12-18T21:55:39.231Z,0.10
2022-12-18T21:58:11.671Z,0.10
2022-12-18T22:00:48.471Z,0.20
2022-12-18T22:03:21.482Z,0.10
2022-12-18T22:06:09.310Z,0.10
2022-12-18T22:08:43.708Z,0.10
2022-12-18T22:18:56.631Z,0.20
2022-12-18T22:21:37.855Z,0.30
2022-12-18T22:24:15.397Z,0.30
2022-12-18T22:26:49.000Z,0.30
2022-12-18T22:29:43.555Z,0.20
2022-12-18T22:32:17.799Z,0.20
2022-12-18T22:35:09.406Z,0.30
2022-12-18T22:37:46.586Z,0.20
2022-12-18T22:40:25.812Z,0.30
2022-12-18T22:42:58.485Z,0.20
2022-12-18T22:45:31.228Z,0.30
2022-12-18T22:48:05.316Z,0.30
2022-12-18T22:50:37.172Z,0.40
2022-12-18T22:53:11.115Z,0.50
2022-12-18T22:55:43.686Z,0.50
2022-12-18T22:58:15.547Z,0.70
2022-12-18T23:00:48.216Z,0.90
2022-12-18T23:03:20.113Z,0.90
2022-12-18T23:05:52.887Z,1.10
2022-12-18T23:08:26.711Z,1.10
2022-12-18T23:11:02.370Z,1.20
2022-12-18T23:13:35.414Z,1.30
2022-12-18T23:16:12.522Z,1.40
2022-12-18T23:18:45.741Z,1.30
2022-12-18T23:21:20.255Z,1.30
2022-12-18T23:23:54.096Z,1.00
2022-12-18T23:26:27.228Z,1.20
2022-12-18T23:28:59.513Z,1.20
2022-12-18T23:31:35.318Z,1.30
2022-12-18T23:36:45.253Z,1.50
2022-12-18T23:39:28.987Z,1.50
2022-12-18T23:42:02.996Z,1.50
2022-12-18T23:44:35.377Z,1.50
2022-12-18T23:47:07.939Z,1.70
2022-12-18T23:49:41.795Z,1.80
2022-12-18T23:52:14.137Z,1.70
2022-12-18T23:54:46.871Z,1.40
2022-12-18T23:57:19.452Z,1.30
2022-12-18T23:59:54.209Z,1.20
